Time;durP1;ratioP1;P1;durP2;ratioP2;P2;SDS_P1;SDS_P2;PMS_P1;PMS_P2;Temp;Humidity;BMP_temperature;BMP_pressure;BME280_temperature;BME280_humidity;BME280_pressure;Samples;Min_cycle;Max_cycle;Signal;HPM_P1;HPM_P2
2021/07/03 00:00:48;;;;;;;25.08;10.18;;;;;;;;;;6182905;22;20220;-89
2021/07/03 00:03:54;;;;;;;22.15;10.02;;;;;;;;;;6184603;23;20226;-90
2021/07/03 00:07:00;;;;;;;28.33;11.15;;;;;;;;;;6183575;23;20172;-90
2021/07/03 00:10:05;;;;;;;27.77;10.98;;;;;;;;;;6182283;23;20171;-91
2021/07/03 00:13:11;;;;;;;24.50;11.32;;;;;;;;;;6181874;23;20167;-90
2021/07/03 00:16:16;;;;;;;26.30;10.90;;;;;;;;;;6182940;23;20179;-88
2021/07/03 00:19:23;;;;;;;25.30;11.38;;;;;;;;;;6183857;23;20172;-91
2021/07/03 00:22:28;;;;;;;24.75;11.65;;;;;;;;;;6183824;22;20171;-91
2021/07/03 00:25:34;;;;;;;25.92;12.07;;;;;;;;;;6183786;23;20168;-88
2021/07/03 00:28:39;;;;;;;23.38;12.50;;;;;;;;;;6183239;23;20295;-90
2021/07/03 00:31:46;;;;;;;27.13;11.55;;;;;;;;;;6184049;23;20192;-90
2021/07/03 00:34:55;;;;;;;29.45;13.10;;;;;;;;;;6201352;23;20190;-89
2021/07/03 00:38:00;;;;;;;42.17;13.88;;;;;;;;;;6183964;23;20183;-89
2021/07/03 00:41:05;;;;;;;40.25;14.18;;;;;;;;;;6183300;23;20164;-90
2021/07/03 00:44:11;;;;;;;26.90;12.45;;;;;;;;;;6184152;23;20164;-90
2021/07/03 00:47:17;;;;;;;30.02;13.13;;;;;;;;;;6182184;23;20176;-89
2021/07/03 00:50:25;;;;;;;39.35;13.77;;;;;;;;;;6184251;23;20176;-89
2021/07/03 00:53:31;;;;;;;44.17;14.82;;;;;;;;;;6184466;23;20156;-90
2021/07/03 00:56:36;;;;;;;124.30;16.63;;;;;;;;;;6183702;23;20211;-88
2021/07/03 00:59:44;;;;;;;34.55;13.88;;;;;;;;;;6166269;23;20208;-88
2021/07/03 01:02:54;;;;;;;50.70;15.40;;;;;;;;;;6181227;23;20496;-89
2021/07/03 01:06:00;;;;;;;96.70;15.70;;;;;;;;;;6181897;22;20179;-90
2021/07/03 01:09:06;;;;;;;119.93;16.13;;;;;;;;;;6182841;23;20616;-88
2021/07/03 01:12:13;;;;;;;43.50;14.63;;;;;;;;;;6185009;23;20172;-88
2021/07/03 01:15:26;;;;;;;50.95;13.82;;;;;;;;;;6185613;23;20188;-90
2021/07/03 01:18:32;;;;;;;31.88;13.40;;;;;;;;;;6183350;23;20248;-89
2021/07/03 01:21:40;;;;;;;40.35;13.00;;;;;;;;;;6185035;23;20155;-89
2021/07/03 01:24:51;;;;;;;32.40;11.95;;;;;;;;;;6185224;22;20211;-87
2021/07/03 01:27:57;;;;;;;27.60;12.52;;;;;;;;;;6183594;23;20171;-89
2021/07/03 01:31:03;;;;;;;38.42;12.18;;;;;;;;;;6183652;23;20615;-88
2021/07/03 01:34:11;;;;;;;30.17;12.70;;;;;;;;;;6182647;22;20164;-90
2021/07/03 01:37:16;;;;;;;33.47;11.30;;;;;;;;;;6184246;23;20220;-89
2021/07/03 01:40:28;;;;;;;26.98;11.45;;;;;;;;;;6182904;22;20243;-90
2021/07/03 01:43:34;;;;;;;36.40;11.82;;;;;;;;;;6181250;23;20166;-90
2021/07/03 01:46:42;;;;;;;33.65;12.27;;;;;;;;;;6181582;23;20600;-91
2021/07/03 01:49:48;;;;;;;23.23;11.20;;;;;;;;;;6181605;23;20168;-89
2021/07/03 01:52:55;;;;;;;23.10;10.68;;;;;;;;;;6182439;22;20156;-90
2021/07/03 01:56:07;;;;;;;17.60;10.70;;;;;;;;;;6182165;23;20214;-90
2021/07/03 01:59:13;;;;;;;17.73;10.02;;;;;;;;;;6181563;23;20211;-90
2021/07/03 02:02:28;;;;;;;25.98;10.90;;;;;;;;;;6182487;22;20164;-90
2021/07/03 02:05:34;;;;;;;34.83;12.18;;;;;;;;;;6181303;23;20167;-88
2021/07/03 02:08:41;;;;;;;24.73;11.50;;;;;;;;;;6183240;23;20171;-90
2021/07/03 02:11:54;;;;;;;97.43;12.70;;;;;;;;;;6182757;23;20171;-89
2021/07/03 02:15:06;;;;;;;46.90;12.00;;;;;;;;;;6181765;23;20191;-89
2021/07/03 02:18:13;;;;;;;27.35;12.10;;;;;;;;;;6182681;23;20188;-89
2021/07/03 02:21:19;;;;;;;50.80;12.55;;;;;;;;;;6182526;22;20191;-88
2021/07/03 02:24:24;;;;;;;41.40;12.70;;;;;;;;;;6183351;23;20238;-90
2021/07/03 02:27:31;;;;;;;102.65;13.27;;;;;;;;;;6182701;23;20171;-89
2021/07/03 02:30:44;;;;;;;72.53;13.68;;;;;;;;;;6183256;23;20167;-90
2021/07/03 02:33:53;;;;;;;30.85;12.48;;;;;;;;;;6182637;23;20184;-91
2021/07/03 02:37:00;;;;;;;31.45;11.82;;;;;;;;;;6188649;22;20191;-90
2021/07/03 02:40:08;;;;;;;27.85;11.65;;;;;;;;;;6201278;23;20164;-88
2021/07/03 02:43:17;;;;;;;22.88;11.95;;;;;;;;;;6204243;23;20171;-89
2021/07/03 02:46:27;;;;;;;25.73;13.40;;;;;;;;;;6184582;23;20277;-88
2021/07/03 02:49:34;;;;;;;33.70;11.43;;;;;;;;;;6184859;23;20166;-89
2021/07/03 02:52:40;;;;;;;24.67;10.98;;;;;;;;;;6184275;23;20156;-89
2021/07/03 02:55:46;;;;;;;32.35;11.85;;;;;;;;;;6189455;22;20255;-89
2021/07/03 02:58:53;;;;;;;37.55;13.05;;;;;;;;;;6188303;23;20620;-89
2021/07/03 03:01:58;;;;;;;63.42;12.93;;;;;;;;;;6184609;23;20168;-89
2021/07/03 03:05:04;;;;;;;24.50;12.52;;;;;;;;;;6184733;23;20164;-88
2021/07/03 03:08:13;;;;;;;38.20;12.00;;;;;;;;;;6183091;23;20218;-89
2021/07/03 03:11:20;;;;;;;71.55;13.60;;;;;;;;;;6185083;22;20171;-89
2021/07/03 03:14:27;;;;;;;44.97;12.65;;;;;;;;;;6184729;22;20168;-90
2021/07/03 03:17:34;;;;;;;28.90;11.82;;;;;;;;;;6185043;23;20183;-90
2021/07/03 03:20:41;;;;;;;29.30;11.25;;;;;;;;;;6184822;22;20188;-89
2021/07/03 03:23:47;;;;;;;30.77;10.75;;;;;;;;;;6183941;23;20172;-90
2021/07/03 03:26:53;;;;;;;22.17;10.23;;;;;;;;;;6184468;23;20228;-91
2021/07/03 03:30:00;;;;;;;28.20;11.35;;;;;;;;;;6184255;23;20167;-88
2021/07/03 03:33:06;;;;;;;27.17;11.38;;;;;;;;;;6184064;23;20167;-90
2021/07/03 03:36:13;;;;;;;37.25;11.20;;;;;;;;;;6184319;23;20187;-88
2021/07/03 03:39:19;;;;;;;138.68;12.65;;;;;;;;;;6184789;23;20152;-89
2021/07/03 03:42:25;;;;;;;38.25;11.07;;;;;;;;;;6185690;23;20167;-89
2021/07/03 03:45:33;;;;;;;64.13;12.50;;;;;;;;;;6184089;23;20673;-89
2021/07/03 03:48:41;;;;;;;63.90;11.43;;;;;;;;;;6182886;23;20163;-90
2021/07/03 03:51:49;;;;;;;44.33;11.68;;;;;;;;;;6183643;23;20156;-89
2021/07/03 03:54:54;;;;;;;74.65;12.65;;;;;;;;;;6183122;23;20235;-88
2021/07/03 03:58:03;;;;;;;57.55;11.35;;;;;;;;;;6184626;23;20214;-88
2021/07/03 04:01:13;;;;;;;54.35;11.80;;;;;;;;;;6183894;23;20196;-90
2021/07/03 04:04:20;;;;;;;33.83;11.60;;;;;;;;;;6183920;23;20217;-88
2021/07/03 04:07:25;;;;;;;23.00;10.85;;;;;;;;;;6184039;23;20167;-88
2021/07/03 04:10:33;;;;;;;20.27;11.23;;;;;;;;;;6184514;23;20163;-89
2021/07/03 04:13:38;;;;;;;27.52;9.50;;;;;;;;;;6184722;23;20255;-89
2021/07/03 04:16:46;;;;;;;29.83;10.45;;;;;;;;;;6184476;23;20690;-89
2021/07/03 04:19:51;;;;;;;23.52;10.88;;;;;;;;;;6184661;23;20168;-89
2021/07/03 04:22:56;;;;;;;20.52;9.55;;;;;;;;;;6183329;23;20199;-90
2021/07/03 04:26:01;;;;;;;20.77;9.65;;;;;;;;;;6183537;22;20148;-88
2021/07/03 04:29:08;;;;;;;21.42;10.05;;;;;;;;;;6182255;22;20300;-87
2021/07/03 04:32:15;;;;;;;75.55;10.82;;;;;;;;;;6182835;23;20168;-89
2021/07/03 04:35:20;;;;;;;19.35;9.65;;;;;;;;;;6182711;23;20179;-90
2021/07/03 04:38:26;;;;;;;35.70;10.32;;;;;;;;;;6183090;23;20171;-89
2021/07/03 04:41:31;;;;;;;19.58;10.43;;;;;;;;;;6183609;23;20612;-89
2021/07/03 04:44:37;;;;;;;16.58;9.07;;;;;;;;;;6183365;23;20176;-90
2021/07/03 04:47:43;;;;;;;19.73;10.57;;;;;;;;;;6183444;23;20171;-89
2021/07/03 04:50:48;;;;;;;17.38;9.85;;;;;;;;;;6182813;23;20175;-89
2021/07/03 04:53:54;;;;;;;21.95;10.32;;;;;;;;;;6184161;23;20227;-89
2021/07/03 04:57:07;;;;;;;18.27;10.35;;;;;;;;;;6151716;23;20196;-88
2021/07/03 05:00:14;;;;;;;17.42;10.07;;;;;;;;;;6170844;23;20220;-88
2021/07/03 05:03:21;;;;;;;16.60;9.80;;;;;;;;;;6170263;23;20216;-88
2021/07/03 05:06:26;;;;;;;16.48;10.02;;;;;;;;;;6152773;23;20168;-89
2021/07/03 05:09:31;;;;;;;18.05;9.23;;;;;;;;;;6170390;23;20160;-89
2021/07/03 05:12:36;;;;;;;14.32;8.95;;;;;;;;;;6153231;23;20192;-89
2021/07/03 05:15:41;;;;;;;22.10;9.65;;;;;;;;;;6170982;23;20173;-89
2021/07/03 05:18:49;;;;;;;14.07;8.85;;;;;;;;;;6152494;23;20172;-89
2021/07/03 05:21:54;;;;;;;15.27;9.35;;;;;;;;;;6153508;23;20171;-90
2021/07/03 05:25:00;;;;;;;16.17;9.27;;;;;;;;;;6152810;23;20172;-89
2021/07/03 05:28:05;;;;;;;16.50;8.95;;;;;;;;;;6170830;23;20508;-89
2021/07/03 05:31:10;;;;;;;16.50;9.35;;;;;;;;;;6153097;23;20171;-90
2021/07/03 05:34:16;;;;;;;17.02;8.90;;;;;;;;;;6152732;23;20165;-88
2021/07/03 05:37:24;;;;;;;14.38;8.95;;;;;;;;;;6153253;23;20200;-89
2021/07/03 05:40:29;;;;;;;15.07;8.52;;;;;;;;;;6154209;23;20281;-89
2021/07/03 05:43:35;;;;;;;14.05;9.27;;;;;;;;;;6150305;23;20212;-89
2021/07/03 05:46:40;;;;;;;16.73;9.60;;;;;;;;;;6150722;23;20612;-89
2021/07/03 05:49:46;;;;;;;16.50;9.55;;;;;;;;;;6150123;23;20292;-90
2021/07/03 05:52:52;;;;;;;18.25;10.10;;;;;;;;;;6149866;23;20180;-89
2021/07/03 05:55:57;;;;;;;17.10;9.57;;;;;;;;;;6178239;23;20239;-89
2021/07/03 05:59:03;;;;;;;16.15;9.60;;;;;;;;;;6178678;23;20242;-89
2021/07/03 06:02:08;;;;;;;14.70;9.20;;;;;;;;;;6180318;23;20176;-90
2021/07/03 06:05:14;;;;;;;14.77;9.13;;;;;;;;;;6179519;23;20163;-89
2021/07/03 06:08:19;;;;;;;14.27;8.60;;;;;;;;;;6178653;23;20171;-89
2021/07/03 06:11:25;;;;;;;19.40;9.40;;;;;;;;;;6177053;23;20228;-88
2021/07/03 06:14:30;;;;;;;17.25;9.85;;;;;;;;;;6181021;22;20183;-89
2021/07/03 06:17:35;;;;;;;19.02;9.52;;;;;;;;;;6179177;23;20199;-89
2021/07/03 06:20:41;;;;;;;15.93;9.38;;;;;;;;;;6180870;23;20168;-90
2021/07/03 06:23:46;;;;;;;16.85;8.95;;;;;;;;;;6178353;23;20587;-89
2021/07/03 06:26:51;;;;;;;13.23;8.30;;;;;;;;;;6179658;23;20180;-90
2021/07/03 06:29:56;;;;;;;15.00;8.75;;;;;;;;;;6180264;23;20162;-89
2021/07/03 06:33:01;;;;;;;16.02;9.10;;;;;;;;;;6179900;23;20167;-88
2021/07/03 06:36:08;;;;;;;14.68;8.48;;;;;;;;;;6181839;23;20184;-89
2021/07/03 06:39:13;;;;;;;17.02;9.18;;;;;;;;;;6179843;23;20172;-90
2021/07/03 06:42:19;;;;;;;15.38;8.35;;;;;;;;;;6180293;23;20171;-90
2021/07/03 06:45:24;;;;;;;15.40;8.45;;;;;;;;;;6179188;23;20175;-89
2021/07/03 06:48:29;;;;;;;15.23;8.70;;;;;;;;;;6179539;23;20171;-89
2021/07/03 06:51:36;;;;;;;14.32;8.85;;;;;;;;;;6182110;23;20171;-89
2021/07/03 06:54:42;;;;;;;14.30;8.73;;;;;;;;;;6181110;23;20167;-90
2021/07/03 06:57:47;;;;;;;15.63;9.38;;;;;;;;;;6179189;23;20207;-90
2021/07/03 07:00:52;;;;;;;15.43;9.20;;;;;;;;;;6179725;23;20250;-88
2021/07/03 07:03:57;;;;;;;16.77;8.55;;;;;;;;;;6178555;23;20163;-89
2021/07/03 07:07:04;;;;;;;15.10;8.48;;;;;;;;;;6180845;23;20183;-89
2021/07/03 07:10:10;;;;;;;15.30;8.10;;;;;;;;;;6179432;23;20167;-90
2021/07/03 07:13:16;;;;;;;11.98;7.93;;;;;;;;;;6179248;23;20558;-90
2021/07/03 07:16:24;;;;;;;15.63;8.50;;;;;;;;;;6179352;23;20176;-90
2021/07/03 07:19:30;;;;;;;13.82;8.82;;;;;;;;;;6178149;23;20272;-89
2021/07/03 07:22:36;;;;;;;16.33;8.75;;;;;;;;;;6179043;23;20245;-90
2021/07/03 07:25:41;;;;;;;13.43;8.13;;;;;;;;;;6180199;23;20215;-89
2021/07/03 07:28:46;;;;;;;18.45;9.20;;;;;;;;;;6180307;23;20164;-89
2021/07/03 07:31:51;;;;;;;15.80;8.43;;;;;;;;;;6182208;23;20223;-89
2021/07/03 07:34:58;;;;;;;12.85;8.18;;;;;;;;;;6200142;23;20627;-88
2021/07/03 07:38:04;;;;;;;17.50;8.73;;;;;;;;;;6183452;22;20196;-89
2021/07/03 07:41:10;;;;;;;14.93;8.07;;;;;;;;;;6183019;23;20163;-90
2021/07/03 07:44:15;;;;;;;14.73;8.35;;;;;;;;;;6182587;23;20181;-90
2021/07/03 07:47:20;;;;;;;11.35;7.75;;;;;;;;;;6184497;23;20179;-90
2021/07/03 07:50:25;;;;;;;11.73;7.55;;;;;;;;;;6184859;23;20175;-91
2021/07/03 07:53:32;;;;;;;11.88;7.40;;;;;;;;;;6185222;23;20168;-90
2021/07/03 07:56:37;;;;;;;11.90;7.80;;;;;;;;;;6183903;23;20187;-91
2021/07/03 07:59:43;;;;;;;11.13;6.97;;;;;;;;;;6184038;23;20207;-91
2021/07/03 08:02:48;;;;;;;12.95;7.32;;;;;;;;;;6183226;23;20547;-90
2021/07/03 08:05:54;;;;;;;12.82;7.20;;;;;;;;;;6184172;23;20168;-90
2021/07/03 08:09:01;;;;;;;10.13;6.65;;;;;;;;;;6179172;23;20232;-90
2021/07/03 08:12:06;;;;;;;10.30;7.40;;;;;;;;;;6181032;23;20172;-90
2021/07/03 08:15:11;;;;;;;11.85;6.43;;;;;;;;;;6182108;23;20228;-90
2021/07/03 08:18:17;;;;;;;9.65;6.50;;;;;;;;;;6182922;23;20195;-91
2021/07/03 08:21:22;;;;;;;12.63;6.30;;;;;;;;;;6184149;22;20172;-91
2021/07/03 08:24:28;;;;;;;10.77;6.10;;;;;;;;;;6181627;22;20372;-91
2021/07/03 08:27:33;;;;;;;10.52;6.07;;;;;;;;;;6182109;23;20234;-92
2021/07/03 08:30:39;;;;;;;9.40;6.43;;;;;;;;;;6182838;23;20176;-90
2021/07/03 08:33:45;;;;;;;11.60;6.68;;;;;;;;;;6185074;23;20156;-92
2021/07/03 08:36:50;;;;;;;10.20;6.63;;;;;;;;;;6182903;22;20176;-90
2021/07/03 08:39:56;;;;;;;9.45;6.22;;;;;;;;;;6181346;22;20627;-90
2021/07/03 08:43:01;;;;;;;10.43;6.15;;;;;;;;;;6184291;23;20151;-91
2021/07/03 08:46:06;;;;;;;13.10;6.75;;;;;;;;;;6189997;23;20211;-92
2021/07/03 08:49:13;;;;;;;9.82;6.22;;;;;;;;;;6184195;23;20171;-91
2021/07/03 08:52:18;;;;;;;10.38;6.15;;;;;;;;;;6182564;22;20163;-91
2021/07/03 08:55:26;;;;;;;8.73;5.50;;;;;;;;;;6182654;22;20190;-90
2021/07/03 08:58:32;;;;;;;12.60;6.03;;;;;;;;;;6184091;22;20218;-91
2021/07/03 09:01:47;;;;;;;10.23;6.45;;;;;;;;;;6182531;23;20167;-90
2021/07/03 09:04:52;;;;;;;8.48;6.13;;;;;;;;;;6184116;23;20171;-90
2021/07/03 09:08:04;;;;;;;8.30;5.63;;;;;;;;;;6184043;23;20155;-91
2021/07/03 09:11:14;;;;;;;9.32;5.78;;;;;;;;;;6184106;23;20163;-91
2021/07/03 09:14:28;;;;;;;10.25;4.97;;;;;;;;;;6181868;23;20167;-91
2021/07/03 09:17:34;;;;;;;7.85;4.90;;;;;;;;;;6184161;23;20238;-90
2021/07/03 09:20:40;;;;;;;12.15;5.20;;;;;;;;;;6182990;22;20617;-90
2021/07/03 09:23:45;;;;;;;8.63;5.10;;;;;;;;;;6182654;23;20159;-89
2021/07/03 09:27:04;;;;;;;7.75;4.63;;;;;;;;;;6182400;23;20146;-89
2021/07/03 09:30:10;;;;;;;9.45;5.07;;;;;;;;;;6181709;23;20271;-90
2021/07/03 09:33:28;;;;;;;6.95;4.70;;;;;;;;;;6182554;22;20186;-91
2021/07/03 09:36:33;;;;;;;6.50;4.30;;;;;;;;;;6184640;22;20187;-90
2021/07/03 09:39:38;;;;;;;7.97;4.72;;;;;;;;;;6182839;23;20172;-89
2021/07/03 09:42:45;;;;;;;6.43;4.30;;;;;;;;;;6180760;23;20234;-89
2021/07/03 09:45:51;;;;;;;6.32;4.30;;;;;;;;;;6180882;23;20183;-91
2021/07/03 09:48:57;;;;;;;8.10;4.40;;;;;;;;;;6181375;22;20230;-90
2021/07/03 09:52:02;;;;;;;7.47;4.22;;;;;;;;;;6182701;23;20224;-90
2021/07/03 09:55:07;;;;;;;7.50;4.30;;;;;;;;;;6181373;23;20205;-91
2021/07/03 09:58:15;;;;;;;6.93;4.50;;;;;;;;;;6181172;23;20808;-90
2021/07/03 10:01:21;;;;;;;8.25;4.50;;;;;;;;;;6181891;23;20159;-90
2021/07/03 10:04:29;;;;;;;9.88;4.30;;;;;;;;;;6183155;23;20194;-88
2021/07/03 10:07:39;;;;;;;8.15;4.18;;;;;;;;;;6182375;22;20503;-91
2021/07/03 10:10:45;;;;;;;6.70;4.03;;;;;;;;;;6200222;22;20170;-91
2021/07/03 10:13:53;;;;;;;9.05;4.05;;;;;;;;;;6182356;23;20171;-90
2021/07/03 10:17:02;;;;;;;5.25;3.92;;;;;;;;;;6180746;23;20168;-90
2021/07/03 10:20:15;;;;;;;9.18;4.50;;;;;;;;;;6180235;23;20240;-91
2021/07/03 10:23:20;;;;;;;7.50;4.60;;;;;;;;;;6180192;22;20216;-90
2021/07/03 10:26:43;;;;;;;5.57;3.70;;;;;;;;;;6181358;23;20203;-90
2021/07/03 10:29:50;;;;;;;5.20;3.72;;;;;;;;;;6183100;23;20170;-89
2021/07/03 10:32:57;;;;;;;5.70;4.07;;;;;;;;;;6179380;23;20167;-92
2021/07/03 10:36:03;;;;;;;5.38;3.97;;;;;;;;;;6182184;22;20216;-91
2021/07/03 10:39:09;;;;;;;8.02;3.95;;;;;;;;;;6182534;22;20194;-91
2021/07/03 10:42:14;;;;;;;8.52;3.65;;;;;;;;;;6181550;23;20164;-92
2021/07/03 10:45:22;;;;;;;10.05;3.72;;;;;;;;;;6182026;23;20167;-92
2021/07/03 10:48:28;;;;;;;6.70;3.63;;;;;;;;;;6181048;23;20215;-90
2021/07/03 10:51:38;;;;;;;11.20;3.78;;;;;;;;;;6180018;22;20183;-89
2021/07/03 10:54:43;;;;;;;7.55;3.67;;;;;;;;;;6180793;22;20215;-89
2021/07/03 10:57:49;;;;;;;4.82;3.30;;;;;;;;;;6179200;23;20191;-91
2021/07/03 11:01:07;;;;;;;7.78;3.80;;;;;;;;;;6181400;23;20187;-91
2021/07/03 11:04:16;;;;;;;11.02;4.13;;;;;;;;;;6182362;23;20188;-89
2021/07/03 11:07:22;;;;;;;19.10;4.35;;;;;;;;;;6182387;23;20162;-89
2021/07/03 11:10:29;;;;;;;6.80;3.30;;;;;;;;;;6182085;23;20291;-89
2021/07/03 11:13:34;;;;;;;6.25;3.45;;;;;;;;;;6182008;23;20215;-91
2021/07/03 11:16:43;;;;;;;9.05;3.58;;;;;;;;;;6183013;23;20319;-91
2021/07/03 11:19:50;;;;;;;6.30;3.78;;;;;;;;;;6184431;23;20195;-90
2021/07/03 11:22:56;;;;;;;7.25;3.85;;;;;;;;;;6184264;23;20155;-90
2021/07/03 11:26:01;;;;;;;4.55;3.25;;;;;;;;;;6182781;23;20167;-90
2021/07/03 11:29:06;;;;;;;5.43;3.55;;;;;;;;;;6182315;22;20627;-90
2021/07/03 11:32:14;;;;;;;8.95;3.78;;;;;;;;;;6183885;23;20171;-89
2021/07/03 11:35:19;;;;;;;4.93;3.30;;;;;;;;;;6184041;23;20174;-89
2021/07/03 11:38:26;;;;;;;8.45;3.95;;;;;;;;;;6186003;23;20238;-89
2021/07/03 11:41:32;;;;;;;18.13;3.75;;;;;;;;;;6184808;23;20500;-89
2021/07/03 11:44:40;;;;;;;36.22;4.53;;;;;;;;;;6184280;23;20260;-90
2021/07/03 11:47:50;;;;;;;19.88;4.35;;;;;;;;;;6183492;22;20211;-91
2021/07/03 11:50:56;;;;;;;8.85;4.50;;;;;;;;;;6183148;23;20175;-91
2021/07/03 11:54:03;;;;;;;4.60;3.08;;;;;;;;;;6184728;23;20195;-90
2021/07/03 11:57:08;;;;;;;5.18;3.58;;;;;;;;;;6184873;23;20180;-90
2021/07/03 12:00:15;;;;;;;6.07;3.28;;;;;;;;;;6184976;23;20171;-90
2021/07/03 12:03:25;;;;;;;13.52;3.50;;;;;;;;;;6182382;23;20242;-91
2021/07/03 12:06:31;;;;;;;6.93;3.10;;;;;;;;;;6186779;22;20207;-90
2021/07/03 12:09:37;;;;;;;6.60;3.20;;;;;;;;;;6182617;23;20182;-90
2021/07/03 12:12:42;;;;;;;4.53;3.47;;;;;;;;;;6184542;23;20211;-90
2021/07/03 12:15:49;;;;;;;6.63;3.40;;;;;;;;;;6180336;23;20223;-89
2021/07/03 12:18:56;;;;;;;7.70;3.28;;;;;;;;;;6180536;23;20242;-91
2021/07/03 12:22:05;;;;;;;6.05;3.00;;;;;;;;;;6184048;23;20154;-90
2021/07/03 12:25:14;;;;;;;5.70;3.40;;;;;;;;;;6184406;22;20163;-90
2021/07/03 12:28:21;;;;;;;5.72;3.67;;;;;;;;;;6180173;23;20171;-90
2021/07/03 12:31:27;;;;;;;7.28;3.70;;;;;;;;;;6181213;23;20615;-89
2021/07/03 12:34:37;;;;;;;7.47;3.83;;;;;;;;;;6180995;23;20166;-89
2021/07/03 12:37:42;;;;;;;5.72;3.10;;;;;;;;;;6179924;23;20159;-89
2021/07/03 12:40:47;;;;;;;5.75;3.20;;;;;;;;;;6181422;22;20159;-90
2021/07/03 12:43:55;;;;;;;7.28;3.15;;;;;;;;;;6182411;23;20214;-90
2021/07/03 12:47:00;;;;;;;7.18;3.42;;;;;;;;;;6181838;23;20163;-91
2021/07/03 12:50:11;;;;;;;7.45;4.00;;;;;;;;;;6183696;23;20171;-90
2021/07/03 12:53:16;;;;;;;5.78;3.50;;;;;;;;;;6182077;23;20175;-89
2021/07/03 12:56:27;;;;;;;4.45;3.03;;;;;;;;;;6185710;23;20174;-88
2021/07/03 12:59:37;;;;;;;4.05;3.10;;;;;;;;;;6203161;22;20195;-90
2021/07/03 13:02:42;;;;;;;6.45;3.60;;;;;;;;;;6184465;23;20167;-89
2021/07/03 13:05:50;;;;;;;5.82;3.20;;;;;;;;;;6180723;23;20175;-90
2021/07/03 13:08:55;;;;;;;5.38;3.05;;;;;;;;;;6181433;22;20199;-91
2021/07/03 13:12:00;;;;;;;6.93;2.88;;;;;;;;;;6180386;23;20175;-91
2021/07/03 13:15:06;;;;;;;4.80;3.05;;;;;;;;;;6180901;23;20175;-90
2021/07/03 13:18:14;;;;;;;3.95;2.80;;;;;;;;;;6183372;23;20195;-91
2021/07/03 13:21:21;;;;;;;4.45;3.40;;;;;;;;;;6182947;23;20159;-91
2021/07/03 13:24:26;;;;;;;4.15;2.63;;;;;;;;;;6183492;22;20242;-91
2021/07/03 13:27:31;;;;;;;3.55;2.90;;;;;;;;;;6181902;23;20216;-91
2021/07/03 13:30:37;;;;;;;4.68;3.10;;;;;;;;;;6183838;23;20178;-90
2021/07/03 13:33:44;;;;;;;5.40;3.22;;;;;;;;;;6183215;23;20222;-90
2021/07/03 13:36:50;;;;;;;5.13;3.00;;;;;;;;;;6183913;23;20232;-91
2021/07/03 13:39:57;;;;;;;5.38;3.25;;;;;;;;;;6184513;23;20195;-90
2021/07/03 22:00:53;;;;;;;12.25;6.25;;;;;;;;;;6170417;22;20245;-89
2021/07/03 22:07:49;;;;;;;13.07;7.07;;;;;;;;;;6208497;23;20183;-89
2021/07/03 22:11:00;;;;;;;14.23;6.63;;;;;;;;;;6213523;23;20551;-89
2021/07/03 22:14:34;;;;;;;11.88;6.45;;;;;;;;;;6231750;22;20168;-88
2021/07/03 22:17:41;;;;;;;13.77;6.20;;;;;;;;;;6214267;23;20170;-89
2021/07/03 22:20:50;;;;;;;13.45;6.50;;;;;;;;;;6212294;23;20227;-90
2021/07/03 22:23:59;;;;;;;12.18;6.72;;;;;;;;;;6213298;22;20171;-88
2021/07/03 22:27:11;;;;;;;9.82;6.47;;;;;;;;;;6211666;23;20172;-89
2021/07/03 22:30:17;;;;;;;20.55;8.45;;;;;;;;;;6208405;22;20286;-88
2021/07/03 22:33:24;;;;;;;13.82;6.78;;;;;;;;;;6209439;23;20166;-87
2021/07/03 22:36:29;;;;;;;10.85;5.95;;;;;;;;;;6209045;23;20186;-87
2021/07/03 22:39:35;;;;;;;12.27;6.63;;;;;;;;;;6228665;23;20195;-88
2021/07/03 22:42:41;;;;;;;11.65;6.07;;;;;;;;;;6209700;23;20174;-90
2021/07/03 22:45:46;;;;;;;12.13;7.10;;;;;;;;;;6208767;23;20227;-89
2021/07/03 22:48:52;;;;;;;12.52;6.03;;;;;;;;;;6207998;22;20669;-89
2021/07/03 22:51:57;;;;;;;9.30;5.90;;;;;;;;;;6207419;23;20167;-88
2021/07/03 22:55:02;;;;;;;13.40;6.75;;;;;;;;;;6208663;23;20171;-87
2021/07/03 22:58:07;;;;;;;12.35;6.60;;;;;;;;;;6207509;23;20179;-89
2021/07/03 23:01:13;;;;;;;11.48;6.38;;;;;;;;;;6210494;22;20190;-88
2021/07/03 23:04:20;;;;;;;12.50;6.00;;;;;;;;;;6209177;22;20501;-88
2021/07/03 23:07:25;;;;;;;11.90;5.90;;;;;;;;;;6211298;23;20674;-88
2021/07/03 23:10:31;;;;;;;52.08;28.90;;;;;;;;;;6211256;23;20171;-89
2021/07/03 23:13:36;;;;;;;12.48;7.05;;;;;;;;;;6227845;23;20159;-88
2021/07/03 23:16:42;;;;;;;12.02;6.60;;;;;;;;;;6211392;23;20166;-88
2021/07/03 23:19:48;;;;;;;14.55;6.00;;;;;;;;;;6211416;23;20210;-88
2021/07/03 23:22:53;;;;;;;17.52;6.53;;;;;;;;;;6209574;23;20158;-88
2021/07/03 23:25:58;;;;;;;14.48;6.15;;;;;;;;;;6208758;23;20167;-88
2021/07/03 23:29:03;;;;;;;10.77;6.72;;;;;;;;;;6209849;23;20206;-87
2021/07/03 23:32:08;;;;;;;14.88;7.10;;;;;;;;;;6210196;23;20222;-88
2021/07/03 23:35:18;;;;;;;10.77;6.28;;;;;;;;;;6209633;23;20151;-88
2021/07/03 23:38:23;;;;;;;13.05;7.43;;;;;;;;;;6211521;23;20167;-89
2021/07/03 23:41:28;;;;;;;13.55;6.65;;;;;;;;;;6210611;23;20175;-88
2021/07/03 23:44:33;;;;;;;14.68;6.57;;;;;;;;;;6209234;23;20179;-87
2021/07/03 23:47:38;;;;;;;15.18;6.72;;;;;;;;;;6210317;23;20179;-89
2021/07/03 23:50:45;;;;;;;11.15;6.80;;;;;;;;;;6211663;23;20171;-88
2021/07/03 23:53:50;;;;;;;10.63;6.07;;;;;;;;;;6211890;22;20171;-89
2021/07/03 23:56:56;;;;;;;14.32;6.85;;;;;;;;;;6212080;23;20167;-89
